Ilioupolis, Greece
Current Conditions -  °F | °C
As of 2:50 PM on Monday 20 Oct 2014 (Local Time) from LGEL Reporting Station
Clear Clear  
Wind Chill: 75°   Ceiling: Unl
Heat Index: 75°   Visibility: 6mi
Dew Point: 43°   Wind: 12mph
Humidity: 31%   Direction: 340°NNW
Pressure: 30.09"   Gusts: NA
Location:  37.92°N, 23.75°E
Report Text: LGEL 201150Z 34010KT CAVOK 24/06 Q1019
Loading
Personal Weather Stations






























Interactive Weather Map
Tropical Storm Tracking
New forecast layout! Learn more

10-Day Weather Forecast

Advertisements
Track Severe Weather on mobile